createdAt,value
2019-01-30T00:01:25.417Z,2.97
2019-01-30T00:03:54.559Z,2.27
2019-01-30T00:06:24.070Z,2.23
2019-01-30T00:08:55.926Z,2.63
2019-01-30T00:11:25.048Z,2.30
2019-01-30T00:13:54.245Z,1.93
2019-01-30T00:16:23.290Z,2.20
2019-01-30T00:18:52.177Z,2.17
2019-01-30T00:21:22.085Z,2.17
2019-01-30T00:23:51.739Z,2.23
2019-01-30T00:26:22.100Z,2.63
2019-01-30T00:28:52.532Z,2.33
2019-01-30T00:31:22.526Z,2.27
2019-01-30T00:33:55.716Z,2.20
2019-01-30T00:36:24.829Z,2.13
2019-01-30T00:38:53.944Z,2.47
2019-01-30T00:41:23.716Z,2.03
2019-01-30T00:43:52.914Z,2.33
2019-01-30T00:46:22.178Z,1.90
2019-01-30T00:48:52.334Z,2.33
2019-01-30T00:51:22.219Z,2.20
2019-01-30T00:53:53.185Z,2.20
2019-01-30T00:56:22.639Z,1.97
2019-01-30T00:58:52.516Z,2.30
2019-01-30T01:01:23.116Z,2.07
2019-01-30T01:03:53.815Z,2.27
2019-01-30T01:06:23.081Z,2.17
2019-01-30T01:08:53.331Z,2.30
2019-01-30T01:11:22.329Z,2.37
2019-01-30T01:13:53.145Z,2.33
2019-01-30T01:16:22.036Z,2.57
2019-01-30T01:18:52.310Z,2.10
2019-01-30T01:21:23.223Z,2.23
2019-01-30T01:23:53.921Z,2.20
2019-01-30T01:26:23.112Z,2.20
2019-01-30T01:28:52.194Z,2.33
2019-01-30T01:31:23.098Z,2.23
2019-01-30T01:33:52.223Z,2.57
2019-01-30T01:36:22.613Z,2.07
2019-01-30T01:39:02.203Z,2.40
2019-01-30T01:41:31.663Z,1.80
2019-01-30T01:44:00.718Z,2.20
2019-01-30T01:46:30.019Z,2.30
2019-01-30T01:48:59.926Z,2.60
2019-01-30T01:51:28.919Z,1.90
2019-01-30T01:53:58.187Z,2.37
2019-01-30T01:56:27.310Z,2.57
2019-01-30T01:58:56.406Z,2.20
2019-01-30T02:01:25.513Z,2.37
2019-01-30T02:03:54.811Z,2.03
2019-01-30T02:06:27.944Z,2.17
2019-01-30T02:08:57.065Z,2.20
2019-01-30T02:11:26.244Z,2.30
2019-01-30T02:13:55.472Z,1.93
2019-01-30T02:16:25.092Z,1.97
2019-01-30T02:18:54.414Z,2.97
2019-01-30T02:21:24.677Z,2.37
2019-01-30T02:23:54.249Z,2.10
2019-01-30T02:26:24.258Z,2.10
2019-01-30T02:28:53.577Z,2.53
2019-01-30T02:31:22.912Z,2.07
2019-01-30T02:33:51.906Z,2.30
2019-01-30T02:36:24.496Z,1.80
2019-01-30T02:38:54.090Z,2.13
2019-01-30T02:41:23.178Z,2.13
2019-01-30T02:43:52.295Z,1.90
2019-01-30T02:46:22.751Z,2.60
2019-01-30T02:48:52.264Z,2.20
2019-01-30T02:51:23.476Z,2.13
2019-01-30T02:53:52.733Z,2.67
2019-01-30T02:56:22.202Z,2.50
2019-01-30T02:58:52.270Z,2.30
2019-01-30T03:01:22.064Z,2.53
2019-01-30T03:03:52.220Z,2.20
2019-01-30T03:06:22.247Z,2.27
2019-01-30T03:08:54.107Z,2.53
2019-01-30T03:11:23.100Z,2.40
2019-01-30T03:13:52.664Z,2.83
2019-01-30T03:16:35.077Z,2.63
2019-01-30T03:19:06.110Z,2.67
2019-01-30T03:21:35.677Z,2.47
2019-01-30T03:24:05.185Z,2.93
2019-01-30T03:26:34.519Z,2.80
2019-01-30T03:29:05.628Z,2.20
2019-01-30T03:31:36.409Z,2.50
2019-01-30T03:34:05.511Z,2.60
2019-01-30T03:39:50.487Z,2.47
2019-01-30T03:42:20.991Z,2.20
2019-01-30T03:45:06.318Z,2.33
2019-01-30T03:47:36.166Z,2.00
2019-01-30T03:53:15.958Z,2.17
2019-01-30T03:55:45.387Z,2.57
2019-01-30T03:58:14.975Z,2.50
2019-01-30T04:01:41.883Z,2.70
2019-01-30T04:04:10.580Z,2.17
2019-01-30T04:06:41.425Z,2.10
2019-01-30T04:09:10.593Z,2.73
2019-01-30T04:11:49.922Z,2.63
2019-01-30T04:14:26.561Z,2.20
2019-01-30T04:20:01.077Z,2.53
2019-01-30T04:23:01.935Z,2.60
2019-01-30T04:25:31.922Z,2.23
2019-01-30T04:31:55.380Z,2.43
2019-01-30T04:35:31.889Z,2.87
2019-01-30T04:38:09.878Z,2.43
2019-01-30T04:40:39.434Z,2.63
2019-01-30T04:43:29.806Z,2.53
2019-01-30T04:55:28.189Z,2.10
2019-01-30T04:57:59.121Z,2.50
2019-01-30T05:04:18.947Z,2.30
2019-01-30T05:13:33.117Z,2.57
2019-01-30T05:33:27.909Z,3.23
2019-01-30T05:49:37.447Z,3.60
2019-01-30T06:05:42.657Z,4.03
2019-01-30T06:11:45.297Z,4.67
2019-01-30T06:18:14.350Z,3.60
2019-01-30T06:21:38.429Z,3.33
2019-01-30T06:24:27.586Z,3.90
2019-01-30T06:30:33.713Z,3.70
2019-01-30T12:33:44.820Z,3.27
2019-01-30T12:36:29.346Z,2.80
2019-01-30T12:42:01.321Z,3.40
2019-01-30T12:44:33.615Z,3.43
2019-01-30T12:57:27.266Z,2.87
2019-01-30T13:00:14.192Z,3.83
2019-01-30T13:03:04.303Z,4.10
2019-01-30T13:05:41.911Z,3.40
2019-01-30T13:11:09.747Z,3.50
2019-01-30T13:13:42.827Z,3.37
2019-01-30T13:16:23.792Z,3.80
2019-01-30T13:19:00.520Z,3.67
2019-01-30T13:21:41.744Z,3.73
2019-01-30T13:24:24.450Z,3.43
2019-01-30T13:27:00.003Z,3.77
2019-01-30T13:29:35.749Z,3.50
2019-01-30T13:32:12.405Z,3.27
2019-01-30T13:34:49.516Z,3.33
2019-01-30T13:37:29.132Z,4.30
2019-01-30T13:40:05.636Z,3.80
2019-01-30T13:42:40.701Z,3.07
2019-01-30T13:45:23.233Z,3.80
2019-01-30T13:47:55.953Z,3.30
2019-01-30T13:50:35.661Z,3.87
2019-01-30T13:53:37.174Z,3.40
2019-01-30T13:56:25.009Z,3.17
2019-01-30T14:01:58.915Z,3.30
2019-01-30T14:04:40.707Z,3.77
2019-01-30T14:07:23.003Z,3.27
2019-01-30T14:10:06.742Z,3.23
2019-01-30T14:12:51.988Z,3.53
2019-01-30T14:15:57.841Z,3.60
2019-01-30T14:19:06.357Z,3.30
2019-01-30T14:24:39.238Z,3.13
2019-01-30T14:46:39.057Z,4.17
2019-01-30T14:49:11.624Z,3.90
2019-01-30T14:51:42.086Z,3.57
2019-01-30T14:54:21.684Z,3.97
2019-01-30T14:56:55.943Z,4.30
2019-01-30T14:59:32.946Z,4.73
2019-01-30T15:02:19.302Z,4.03
2019-01-30T15:05:26.647Z,3.77
2019-01-30T15:08:22.369Z,4.67
2019-01-30T15:10:52.727Z,4.37
2019-01-30T15:13:32.152Z,5.13
2019-01-30T15:16:04.143Z,4.53
2019-01-30T15:24:52.783Z,4.37
2019-01-30T15:27:24.131Z,4.80
2019-01-30T15:33:19.991Z,4.37
2019-01-30T15:36:06.443Z,4.47
2019-01-30T15:45:26.658Z,4.30
2019-01-30T16:09:49.418Z,4.60
2019-01-30T16:12:18.682Z,5.10
2019-01-30T16:14:50.277Z,5.00
2019-01-30T16:17:18.539Z,4.60
2019-01-30T16:19:49.324Z,4.93
2019-01-30T16:22:19.642Z,5.70
2019-01-30T16:25:08.817Z,4.73
2019-01-30T16:27:30.142Z,4.97
2019-01-30T16:29:59.128Z,5.60
2019-01-30T16:32:29.058Z,4.70
2019-01-30T16:34:59.081Z,4.70
2019-01-30T16:37:28.052Z,4.10
2019-01-30T16:39:56.812Z,4.10
2019-01-30T16:42:25.781Z,4.43
2019-01-30T16:44:55.055Z,4.23
2019-01-30T16:47:23.833Z,4.07
2019-01-30T16:49:52.705Z,3.87
2019-01-30T16:52:24.346Z,4.43
2019-01-30T16:54:53.226Z,3.87
2019-01-30T16:57:22.175Z,4.40
2019-01-30T16:59:54.046Z,4.83
2019-01-30T17:02:24.591Z,4.47
2019-01-30T17:04:56.314Z,4.63
2019-01-30T17:07:25.117Z,4.73
2019-01-30T17:09:54.074Z,4.83
2019-01-30T17:12:23.130Z,3.80
2019-01-30T17:14:52.417Z,3.97
2019-01-30T17:17:22.675Z,3.87
2019-01-30T17:19:52.199Z,3.40
2019-01-30T17:22:21.560Z,3.93
2019-01-30T17:24:53.913Z,3.47
2019-01-30T17:27:22.826Z,3.03
2019-01-30T17:29:51.636Z,3.30
2019-01-30T17:32:20.638Z,3.57
2019-01-30T17:34:51.990Z,3.73
2019-01-30T17:37:21.503Z,3.83
2019-01-30T17:39:53.064Z,3.00
2019-01-30T17:42:22.230Z,3.03
2019-01-30T17:44:51.149Z,3.00
2019-01-30T17:47:21.400Z,3.10
2019-01-30T17:49:50.359Z,2.73
2019-01-30T17:52:21.674Z,3.10
2019-01-30T17:54:51.748Z,2.53
2019-01-30T17:57:21.033Z,2.60
2019-01-30T17:59:49.995Z,2.87
2019-01-30T18:02:22.367Z,2.47
2019-01-30T18:04:51.654Z,3.03
2019-01-30T18:07:21.317Z,2.67
2019-01-30T18:09:50.567Z,3.20
2019-01-30T18:12:20.270Z,2.70
2019-01-30T18:14:51.060Z,3.23
2019-01-30T18:17:20.107Z,2.80
2019-01-30T18:19:53.045Z,2.97
2019-01-30T18:22:25.137Z,3.10
2019-01-30T18:24:53.998Z,2.80
2019-01-30T18:27:23.501Z,2.83
2019-01-30T18:29:53.827Z,3.07
2019-01-30T18:32:22.765Z,3.80
2019-01-30T18:34:54.393Z,2.70
2019-01-30T18:37:23.447Z,2.80
2019-01-30T18:39:52.186Z,3.50
2019-01-30T18:42:22.662Z,3.40
2019-01-30T18:44:51.779Z,3.00
2019-01-30T18:47:20.941Z,3.13
2019-01-30T18:49:50.183Z,3.00
2019-01-30T18:52:19.356Z,2.90
2019-01-30T18:54:48.322Z,2.80
2019-01-30T18:57:18.849Z,2.53
2019-01-30T18:59:47.709Z,3.13
2019-01-30T19:02:16.773Z,3.37
2019-01-30T19:04:45.920Z,2.90
2019-01-30T19:07:14.763Z,2.47
2019-01-30T19:09:43.532Z,3.33
2019-01-30T19:12:12.548Z,2.90
2019-01-30T19:14:41.417Z,3.10
2019-01-30T19:17:11.695Z,3.53
2019-01-30T19:19:40.773Z,3.40
2019-01-30T19:22:10.310Z,3.43
2019-01-30T19:24:39.657Z,3.97
2019-01-30T19:27:08.556Z,3.50
2019-01-30T19:29:37.867Z,2.80
2019-01-30T19:32:07.140Z,3.00
2019-01-30T19:34:35.899Z,4.13
2019-01-30T19:37:05.012Z,3.90
2019-01-30T19:39:33.823Z,3.37
2019-01-30T19:42:02.671Z,3.77
2019-01-30T19:44:31.851Z,4.47
2019-01-30T19:47:00.695Z,4.60
2019-01-30T19:49:29.567Z,4.10
2019-01-30T19:51:58.908Z,4.70
2019-01-30T19:54:27.837Z,4.50
2019-01-30T19:56:56.726Z,4.47
2019-01-30T19:59:28.659Z,3.27
2019-01-30T20:01:58.387Z,4.33
2019-01-30T20:04:27.274Z,4.53
2019-01-30T20:07:14.798Z,4.40
2019-01-30T20:09:44.906Z,3.57
2019-01-30T20:12:14.794Z,4.43
2019-01-30T20:14:43.675Z,4.60
2019-01-30T20:17:15.406Z,4.17
2019-01-30T20:19:44.592Z,4.40
2019-01-30T20:22:13.406Z,4.63
2019-01-30T20:24:42.187Z,4.40
2019-01-30T20:27:11.088Z,4.50
2019-01-30T20:29:39.905Z,4.50
2019-01-30T20:32:09.489Z,4.20
2019-01-30T20:34:38.502Z,3.67
2019-01-30T20:37:09.089Z,5.23
2019-01-30T20:39:38.020Z,3.93
2019-01-30T20:42:08.016Z,4.33
2019-01-30T20:44:36.992Z,3.97
2019-01-30T20:47:06.347Z,4.20
2019-01-30T20:49:35.740Z,4.27
2019-01-30T20:52:07.555Z,4.57
2019-01-30T20:54:36.749Z,4.43
2019-01-30T20:57:05.587Z,3.87
2019-01-30T20:59:34.494Z,4.57
2019-01-30T21:02:03.366Z,4.90
2019-01-30T21:04:32.356Z,5.03
2019-01-30T21:07:01.233Z,5.53
2019-01-30T21:09:30.104Z,4.83
2019-01-30T21:11:59.131Z,6.07
2019-01-30T21:14:35.564Z,6.03
2019-01-30T21:17:04.637Z,5.17
2019-01-30T21:19:33.406Z,5.40
2019-01-30T21:22:02.394Z,4.90
2019-01-30T21:24:31.513Z,6.13
2019-01-30T21:27:03.279Z,4.97
2019-01-30T21:29:32.558Z,5.50
2019-01-30T21:32:01.538Z,4.60
2019-01-30T21:34:30.500Z,5.10
2019-01-30T21:36:59.471Z,4.37
2019-01-30T21:39:28.318Z,5.00
2019-01-30T21:41:57.076Z,4.97
2019-01-30T21:44:30.705Z,4.63
2019-01-30T21:47:01.372Z,4.53
2019-01-30T21:49:29.927Z,5.23
2019-01-30T21:51:58.938Z,5.80
2019-01-30T21:54:28.086Z,5.33
2019-01-30T21:56:57.140Z,6.97
2019-01-30T21:59:26.122Z,5.13
2019-01-30T22:02:07.746Z,5.27
2019-01-30T22:04:27.224Z,5.90
2019-01-30T22:06:56.182Z,5.30
2019-01-30T22:09:25.067Z,5.57
2019-01-30T22:11:54.612Z,5.97
2019-01-30T22:14:23.643Z,5.90
2019-01-30T22:16:52.687Z,5.37
2019-01-30T22:19:23.078Z,5.50
2019-01-30T22:21:51.846Z,6.63
2019-01-30T22:24:20.848Z,5.37
2019-01-30T22:26:50.878Z,5.07
2019-01-30T22:29:23.140Z,5.67
2019-01-30T22:31:52.284Z,6.20
2019-01-30T22:34:21.515Z,6.83
2019-01-30T22:36:51.898Z,6.70
2019-01-30T22:39:23.243Z,6.20
2019-01-30T22:41:52.137Z,6.00
2019-01-30T22:44:21.686Z,6.30
2019-01-30T22:46:50.865Z,5.70
2019-01-30T22:49:21.264Z,6.23
2019-01-30T22:51:50.907Z,6.10
2019-01-30T22:54:21.416Z,5.70
2019-01-30T22:56:51.330Z,5.97
2019-01-30T22:59:20.474Z,6.37
2019-01-30T23:01:50.998Z,5.13
2019-01-30T23:04:34.760Z,5.90
2019-01-30T23:07:18.692Z,5.30
2019-01-30T23:10:06.731Z,5.13
2019-01-30T23:12:47.474Z,5.07
2019-01-30T23:15:19.728Z,5.27
2019-01-30T23:18:03.459Z,5.67
2019-01-30T23:20:34.156Z,4.90
2019-01-30T23:23:24.580Z,5.63
2019-01-30T23:26:05.331Z,5.47
2019-01-30T23:28:55.055Z,5.17
2019-01-30T23:31:26.822Z,5.90
2019-01-30T23:34:33.023Z,4.80
2019-01-30T23:37:34.604Z,4.90
2019-01-30T23:40:23.200Z,5.13
2019-01-30T23:43:14.277Z,4.33
2019-01-30T23:45:58.528Z,4.13
2019-01-30T23:48:54.306Z,4.00
2019-01-30T23:51:42.667Z,5.10
2019-01-30T23:54:44.698Z,4.20
2019-01-30T23:57:32.396Z,3.50
